Time;durP1;ratioP1;P1;durP2;ratioP2;P2;SDS_P1;SDS_P2;PMS_P1;PMS_P2;Temp;Humidity;BMP_temperature;BMP_pressure;BME280_temperature;BME280_humidity;BME280_pressure;Samples;Min_cycle;Max_cycle;Signal;HPM_P1;HPM_P2
2024/04/15 00:00:07;;;;;;;5.10;1.60;;;;;;;10.85;44.35;100506.95;111260;1211;99542;-71
2024/04/15 00:02:32;;;;;;;5.40;1.90;;;;;;;10.85;44.31;100508.18;111158;1212;137942;-71
2024/04/15 00:04:59;;;;;;;5.60;1.50;;;;;;;10.84;44.32;100511.64;111272;1209;97641;-71
2024/04/15 00:07:24;;;;;;;5.40;1.40;;;;;;;10.82;44.49;100511.36;111240;1212;139414;-71
2024/04/15 00:09:49;;;;;;;7.70;1.70;;;;;;;10.80;44.44;100512.34;111359;1213;99505;-71
2024/04/15 00:12:15;;;;;;;4.70;1.40;;;;;;;10.78;44.55;100511.75;111273;1209;101217;-71
2024/04/15 00:14:40;;;;;;;6.90;1.90;;;;;;;10.76;44.66;100512.01;111296;1209;137879;-71
2024/04/15 00:17:05;;;;;;;6.50;1.80;;;;;;;10.72;44.67;100507.89;111310;1210;98531;-71
2024/04/15 00:19:30;;;;;;;8.80;1.80;;;;;;;10.69;44.80;100502.66;111291;1208;137890;-71
2024/04/15 00:21:55;;;;;;;6.10;1.70;;;;;;;10.65;44.83;100496.22;111285;1212;97804;-71
2024/04/15 00:24:21;;;;;;;14.70;2.10;;;;;;;10.60;44.92;100494.66;111346;1212;97715;-70
2024/04/15 00:26:46;;;;;;;3.60;1.70;;;;;;;10.56;44.99;100492.91;111059;1210;137959;-71
2024/04/15 00:29:11;;;;;;;13.80;2.70;;;;;;;10.54;45.01;100496.94;111220;1212;97731;-71
2024/04/15 00:31:36;;;;;;;7.20;2.50;;;;;;;10.52;45.10;100482.94;111222;1210;138067;-71
2024/04/15 00:34:01;;;;;;;7.40;2.20;;;;;;;10.53;45.20;100488.57;111311;1211;97601;-70
2024/04/15 00:36:26;;;;;;;12.60;2.30;;;;;;;10.55;45.27;100487.42;111357;1213;97669;-71
2024/04/15 00:38:52;;;;;;;9.00;2.10;;;;;;;10.52;45.28;100482.21;111223;1207;138348;-71
2024/04/15 00:41:17;;;;;;;5.40;2.20;;;;;;;10.51;45.33;100471.54;111371;1211;97700;-71
2024/04/15 00:43:42;;;;;;;7.20;2.20;;;;;;;10.50;45.42;100465.48;111244;1212;137826;-71
2024/04/15 00:46:08;;;;;;;7.50;2.20;;;;;;;10.47;45.46;100463.48;111399;1212;97734;-71
2024/04/15 00:48:36;;;;;;;6.80;2.70;;;;;;;10.46;45.56;100461.41;111172;1210;137893;-71
2024/04/15 00:51:03;;;;;;;6.50;2.00;;;;;;;10.43;45.54;100455.62;111318;1212;110666;-71
2024/04/15 00:53:29;;;;;;;9.60;2.30;;;;;;;10.42;45.58;100454.44;111308;1213;97816;-71
2024/04/15 00:55:58;;;;;;;7.20;2.20;;;;;;;10.38;45.64;100452.33;111168;1212;137731;-71
2024/04/15 00:58:25;;;;;;;5.80;1.90;;;;;;;10.34;45.74;100455.55;111169;1213;97734;-71
2024/04/15 01:00:52;;;;;;;7.80;3.10;;;;;;;10.31;45.80;100459.40;111245;1208;137999;-71
2024/04/15 01:03:18;;;;;;;4.20;1.90;;;;;;;10.32;45.97;100460.46;111282;1211;97639;-71
2024/04/15 01:05:44;;;;;;;11.50;2.00;;;;;;;10.31;45.97;100462.27;111410;1212;97790;-71
2024/04/15 01:08:09;;;;;;;12.60;2.00;;;;;;;10.31;45.92;100461.56;111192;1212;138466;-71
2024/04/15 01:10:34;;;;;;;8.30;2.40;;;;;;;10.30;45.95;100462.34;111246;1213;97690;-70
2024/04/15 01:13:00;;;;;;;10.40;2.10;;;;;;;10.27;46.02;100460.67;111272;1209;138003;-70
2024/04/15 01:15:25;;;;;;;7.20;2.30;;;;;;;10.25;46.05;100465.59;111224;1212;99206;-71
2024/04/15 01:17:50;;;;;;;5.90;2.10;;;;;;;10.24;46.25;100467.60;111388;1212;102636;-71
2024/04/15 01:20:16;;;;;;;4.80;2.00;;;;;;;10.22;46.31;100470.54;111182;1209;137941;-71
2024/04/15 01:22:48;;;;;;;6.80;2.40;;;;;;;10.23;46.37;100463.73;111313;1212;97610;-71
2024/04/15 01:25:13;;;;;;;3.90;1.90;;;;;;;10.27;46.40;100458.55;111159;1214;138300;-71
2024/04/15 01:27:39;;;;;;;5.50;2.10;;;;;;;10.29;46.49;100454.69;111342;1209;97621;-71
2024/04/15 01:30:08;;;;;;;6.80;2.00;;;;;;;10.31;46.50;100453.38;111455;1213;97638;-71
2024/04/15 01:32:33;;;;;;;9.50;2.50;;;;;;;10.30;46.55;100456.80;111171;1212;139009;-71
2024/04/15 01:34:58;;;;;;;8.10;2.60;;;;;;;10.30;46.63;100460.91;111267;1212;97656;-71
2024/04/15 01:37:23;;;;;;;5.50;2.20;;;;;;;10.31;46.66;100462.08;111246;1211;137707;-72
2024/04/15 01:39:48;;;;;;;8.80;2.60;;;;;;;10.32;46.74;100464.55;111332;1212;97608;-72
2024/04/15 01:42:14;;;;;;;10.00;2.50;;;;;;;10.34;46.95;100460.87;111359;1208;99092;-71
2024/04/15 01:44:39;;;;;;;6.10;2.20;;;;;;;10.35;47.00;100453.70;111230;1212;138151;-71
2024/04/15 01:47:04;;;;;;;5.80;1.90;;;;;;;10.35;46.96;100447.81;111377;1212;97752;-72
2024/04/15 01:49:32;;;;;;;5.90;1.90;;;;;;;10.36;47.00;100441.36;111211;1211;139350;-71
2024/04/15 01:51:57;;;;;;;5.80;2.30;;;;;;;10.35;47.07;100442.65;111306;1212;107459;-72
2024/04/15 01:54:23;;;;;;;9.50;2.50;;;;;;;10.35;47.17;100438.00;111240;1209;97790;-71
2024/04/15 01:56:48;;;;;;;10.20;2.60;;;;;;;10.36;47.18;100440.29;111307;1223;137901;-71
2024/04/15 01:59:13;;;;;;;6.00;2.40;;;;;;;10.36;47.25;100448.30;111250;1208;97701;-71
2024/04/15 02:01:38;;;;;;;7.20;2.40;;;;;;;10.35;47.14;100444.23;111269;1209;138570;-71
2024/04/15 02:04:03;;;;;;;6.70;2.20;;;;;;;10.32;47.30;100442.05;111186;1213;97686;-71
2024/04/15 02:06:28;;;;;;;6.00;1.60;;;;;;;10.32;47.32;100443.10;111360;1211;97746;-72
2024/04/15 02:08:54;;;;;;;6.20;2.40;;;;;;;10.33;47.30;100447.19;111236;1211;137878;-71
2024/04/15 02:11:19;;;;;;;11.20;2.30;;;;;;;10.31;47.40;100442.81;111341;1211;97634;-72
2024/04/15 02:13:44;;;;;;;7.70;2.30;;;;;;;10.26;47.43;100439.63;111291;1212;138939;-71
2024/04/15 02:16:09;;;;;;;6.60;1.90;;;;;;;10.21;47.45;100440.77;111340;1210;97629;-71
2024/04/15 02:18:35;;;;;;;11.90;2.20;;;;;;;10.16;47.52;100441.51;111101;1212;137906;-71
2024/04/15 02:21:00;;;;;;;6.20;1.90;;;;;;;10.12;47.59;100435.27;111343;1207;97655;-71
2024/04/15 02:23:26;;;;;;;8.50;2.20;;;;;;;10.09;47.66;100438.94;111365;1212;97636;-71
2024/04/15 02:25:51;;;;;;;5.70;1.40;;;;;;;10.06;47.56;100429.27;111204;1209;138069;-71
2024/04/15 02:28:16;;;;;;;5.60;1.90;;;;;;;10.04;47.55;100433.80;111244;1213;97719;-71
2024/04/15 02:30:41;;;;;;;5.70;1.90;;;;;;;10.04;47.68;100439.35;111312;1212;138182;-71
2024/04/15 02:33:06;;;;;;;12.40;2.00;;;;;;;10.07;47.71;100426.38;111353;1208;97598;-71
2024/04/15 02:35:31;;;;;;;8.90;2.00;;;;;;;10.09;47.64;100420.92;111304;1211;97705;-72
2024/04/15 02:37:57;;;;;;;12.70;1.70;;;;;;;10.10;47.62;100426.77;111262;1208;139076;-71
2024/04/15 02:40:22;;;;;;;7.80;1.70;;;;;;;10.08;47.62;100418.29;111375;1211;97712;-72
2024/04/15 02:42:47;;;;;;;6.10;1.50;;;;;;;10.07;47.66;100419.42;111110;1212;140655;-71
2024/04/15 02:45:12;;;;;;;3.90;1.50;;;;;;;10.06;47.69;100419.23;111243;1212;97657;-71
2024/04/15 02:47:38;;;;;;;10.60;1.70;;;;;;;10.06;47.71;100420.67;111383;1213;97593;-71
2024/04/15 02:50:04;;;;;;;7.00;2.00;;;;;;;10.06;47.62;100418.39;111136;1211;138965;-71
2024/04/15 02:52:29;;;;;;;5.80;2.20;;;;;;;10.04;47.72;100417.23;111238;1212;97646;-72
2024/04/15 02:54:54;;;;;;;8.50;2.50;;;;;;;10.01;47.69;100418.95;111143;1209;139273;-71
2024/04/15 02:57:19;;;;;;;4.60;1.90;;;;;;;10.01;47.84;100418.05;111189;1212;97660;-71
2024/04/15 02:59:45;;;;;;;5.30;1.60;;;;;;;10.02;47.75;100430.49;111108;1213;97703;-71
2024/04/15 03:02:11;;;;;;;11.90;3.10;;;;;;;10.02;47.85;100437.84;111202;1213;137728;-71
2024/04/15 03:04:36;;;;;;;12.90;2.20;;;;;;;10.00;47.83;100429.73;111439;1211;97656;-72
2024/04/15 03:07:01;;;;;;;5.50;2.00;;;;;;;9.96;47.88;100428.27;111260;1211;138281;-72
2024/04/15 03:09:26;;;;;;;5.00;1.70;;;;;;;9.96;47.94;100424.17;111312;1213;96412;-71
2024/04/15 03:11:52;;;;;;;5.60;1.80;;;;;;;9.93;47.88;100425.55;111237;1209;97876;-71
2024/04/15 03:14:17;;;;;;;5.10;1.80;;;;;;;9.91;47.95;100415.66;111166;1213;138681;-71
2024/04/15 03:16:43;;;;;;;6.30;2.10;;;;;;;9.89;48.00;100407.02;111403;1209;97966;-71
2024/04/15 03:19:09;;;;;;;4.30;1.60;;;;;;;9.87;48.01;100399.61;111209;1212;137829;-71
2024/04/15 03:21:34;;;;;;;9.60;2.30;;;;;;;9.85;48.05;100397.91;111085;1209;97609;-71
2024/04/15 03:23:59;;;;;;;4.40;1.50;;;;;;;9.86;48.16;100389.83;111419;1211;97704;-71
2024/04/15 03:26:25;;;;;;;8.20;1.80;;;;;;;9.86;48.03;100390.38;111192;1209;137385;-71
2024/04/15 03:28:50;;;;;;;7.90;1.70;;;;;;;9.83;48.17;100381.77;111399;1212;97740;-71
2024/04/15 03:31:15;;;;;;;5.60;2.00;;;;;;;9.82;48.19;100372.54;111194;1212;138219;-71
2024/04/15 03:33:40;;;;;;;5.00;1.70;;;;;;;9.84;48.24;100381.55;111360;1209;97598;-71
2024/04/15 03:36:06;;;;;;;6.30;1.80;;;;;;;9.86;48.29;100392.33;111391;1209;97619;-72
2024/04/15 03:38:32;;;;;;;8.20;2.10;;;;;;;9.84;48.19;100397.79;111189;1210;138594;-71
2024/04/15 03:40:58;;;;;;;5.50;1.50;;;;;;;9.80;48.34;100391.73;111399;1209;97622;-71
2024/04/15 03:43:23;;;;;;;6.20;2.80;;;;;;;9.75;48.38;100376.39;111203;1212;137488;-71
2024/04/15 03:45:48;;;;;;;6.40;1.90;;;;;;;9.75;48.47;100374.09;111331;1213;99211;-71
2024/04/15 03:48:13;;;;;;;5.90;1.50;;;;;;;9.74;48.41;100363.05;111384;1210;99098;-71
2024/04/15 03:50:38;;;;;;;7.60;1.90;;;;;;;9.77;48.62;100360.41;111226;1212;140387;-71
2024/04/15 03:53:04;;;;;;;7.50;2.00;;;;;;;9.81;48.64;100354.73;111434;1209;97749;-71
2024/04/15 03:55:29;;;;;;;6.30;3.10;;;;;;;9.82;48.73;100363.63;111189;1212;137600;-71
2024/04/15 03:57:54;;;;;;;9.20;3.40;;;;;;;9.81;48.92;100363.09;111389;1213;97659;-71
2024/04/15 04:00:19;;;;;;;5.80;2.30;;;;;;;9.80;48.90;100364.77;111305;1213;97617;-71
2024/04/15 04:02:44;;;;;;;10.20;2.80;;;;;;;9.82;49.00;100360.92;111230;1211;138151;-71
2024/04/15 04:05:10;;;;;;;10.30;2.60;;;;;;;9.82;49.02;100353.63;111382;1223;97680;-71
2024/04/15 04:07:35;;;;;;;12.00;2.60;;;;;;;9.80;49.20;100358.71;111256;1209;139252;-71
2024/04/15 04:10:00;;;;;;;12.00;3.10;;;;;;;9.80;49.20;100363.17;111421;1209;98080;-71
2024/04/15 04:12:25;;;;;;;10.00;3.20;;;;;;;9.79;49.31;100354.11;111319;1212;97611;-71
2024/04/15 04:14:50;;;;;;;10.20;2.70;;;;;;;9.75;49.44;100351.94;111311;1211;138824;-72
2024/04/15 04:17:16;;;;;;;12.30;2.80;;;;;;;9.75;49.51;100354.42;111275;1209;97606;-71
2024/04/15 04:19:41;;;;;;;8.10;2.80;;;;;;;9.77;49.61;100355.80;111260;1208;138414;-71
2024/04/15 04:22:06;;;;;;;7.10;2.50;;;;;;;9.76;49.61;100358.86;111445;1208;96987;-71
2024/04/15 04:24:31;;;;;;;5.80;2.40;;;;;;;9.76;49.73;100363.88;111346;1211;97693;-71
2024/04/15 04:26:57;;;;;;;7.30;3.20;;;;;;;9.75;49.76;100369.98;111324;1212;138500;-71
2024/04/15 04:29:22;;;;;;;7.80;2.70;;;;;;;9.71;49.83;100374.95;111330;1213;98163;-71
2024/04/15 04:31:47;;;;;;;12.10;3.30;;;;;;;9.69;49.89;100375.92;111304;1212;138833;-71
2024/04/15 04:34:12;;;;;;;10.10;2.60;;;;;;;9.69;50.00;100385.39;111343;1211;97746;-71
2024/04/15 04:36:38;;;;;;;10.90;2.70;;;;;;;9.67;50.04;100389.23;111077;1212;137696;-71
2024/04/15 04:39:03;;;;;;;14.40;3.40;;;;;;;9.64;50.21;100392.05;111460;1213;97817;-72
2024/04/15 04:41:28;;;;;;;10.90;3.10;;;;;;;9.57;50.31;100397.88;111362;1212;97902;-72
2024/04/15 04:43:53;;;;;;;6.50;2.90;;;;;;;9.53;50.34;100396.48;111142;1213;137836;-71
2024/04/15 04:46:19;;;;;;;10.10;3.30;;;;;;;9.50;50.43;100394.48;111338;1221;96468;-71
2024/04/15 04:48:44;;;;;;;6.70;2.60;;;;;;;9.45;50.49;100394.84;111310;1211;138801;-71
2024/04/15 04:51:10;;;;;;;6.90;2.60;;;;;;;9.40;50.58;100391.30;111271;1214;97755;-72
2024/04/15 04:53:37;;;;;;;14.80;2.80;;;;;;;9.35;50.69;100385.78;111360;1212;97677;-71
2024/04/15 04:56:06;;;;;;;7.10;2.80;;;;;;;9.35;50.96;100390.42;111200;1214;137663;-71
2024/04/15 04:58:31;;;;;;;6.80;2.10;;;;;;;9.37;50.94;100391.27;111252;1211;97630;-71
2024/04/15 05:00:56;;;;;;;7.50;2.50;;;;;;;9.39;51.09;100386.00;111273;1211;138614;-71
2024/04/15 05:03:22;;;;;;;8.60;2.60;;;;;;;9.41;51.30;100376.81;111440;1209;97769;-69
2024/04/15 05:05:47;;;;;;;14.40;2.20;;;;;;;9.43;51.35;100369.92;111389;1208;102560;-73
2024/04/15 05:08:13;;;;;;;7.70;2.40;;;;;;;9.45;51.38;100360.42;111187;1210;138052;-73
2024/04/15 05:10:38;;;;;;;3.70;2.10;;;;;;;9.48;51.60;100354.42;111130;1213;97587;-68
2024/04/15 05:13:05;;;;;;;10.10;2.50;;;;;;;9.51;51.64;100364.29;111228;1213;138306;-70
2024/04/15 05:15:30;;;;;;;4.30;2.10;;;;;;;9.49;51.83;100363.13;111415;1213;97369;-70
2024/04/15 05:17:55;;;;;;;7.00;2.10;;;;;;;9.48;52.03;100357.63;111426;1208;97626;-70
2024/04/15 05:20:21;;;;;;;10.70;2.50;;;;;;;9.50;52.17;100352.38;111206;1213;137600;-69
2024/04/15 05:22:46;;;;;;;9.00;2.20;;;;;;;9.50;52.34;100350.39;111424;1214;98199;-70
2024/04/15 05:25:11;;;;;;;8.00;2.00;;;;;;;9.46;52.55;100344.86;111210;1212;138825;-69
2024/04/15 05:27:37;;;;;;;9.10;2.10;;;;;;;9.47;52.59;100343.03;111349;1213;97737;-68
2024/04/15 05:30:02;;;;;;;6.60;1.80;;;;;;;9.51;52.87;100342.16;111260;1213;97732;-69
2024/04/15 05:32:27;;;;;;;7.20;2.40;;;;;;;9.55;53.01;100334.31;111250;1211;138450;-69
2024/04/15 05:34:52;;;;;;;6.30;1.60;;;;;;;9.57;53.11;100315.65;111356;1220;97630;-68
2024/04/15 05:37:18;;;;;;;13.50;2.10;;;;;;;9.62;53.32;100305.61;111165;1211;138772;-69
2024/04/15 05:39:43;;;;;;;4.10;1.80;;;;;;;9.67;53.52;100290.58;111434;1209;97599;-68
2024/04/15 05:42:08;;;;;;;11.30;2.00;;;;;;;9.69;53.63;100290.28;111362;1213;103097;-68
2024/04/15 05:44:33;;;;;;;11.30;2.30;;;;;;;9.73;53.82;100287.63;111266;1210;138077;-68
2024/04/15 05:46:58;;;;;;;4.30;1.30;;;;;;;9.78;53.91;100287.23;111105;1213;97309;-68
2024/04/15 05:49:23;;;;;;;5.90;2.00;;;;;;;9.83;54.07;100294.34;111169;1212;138221;-68
2024/04/15 05:51:49;;;;;;;6.40;1.50;;;;;;;9.84;54.06;100290.16;111435;1222;97230;-68
2024/04/15 05:54:14;;;;;;;3.30;1.40;;;;;;;9.86;54.25;100288.99;111302;1212;97665;-69
2024/04/15 05:56:39;;;;;;;5.50;1.50;;;;;;;9.87;54.41;100286.12;111297;1211;138437;-71
2024/04/15 05:59:04;;;;;;;6.80;1.50;;;;;;;9.87;54.57;100288.24;111303;1208;97662;-70
2024/04/15 06:01:29;;;;;;;7.30;1.50;;;;;;;9.82;54.57;100296.33;111217;1214;137633;-71
2024/04/15 06:03:55;;;;;;;6.80;1.30;;;;;;;9.79;54.81;100296.45;111419;1211;97657;-71
2024/04/15 06:06:20;;;;;;;5.80;1.80;;;;;;;9.81;54.89;100297.80;111483;1209;97812;-72
2024/04/15 06:08:45;;;;;;;10.40;1.40;;;;;;;9.82;54.93;100302.55;111288;1212;139200;-71
2024/04/15 06:11:10;;;;;;;5.70;1.70;;;;;;;9.80;55.03;100294.09;110469;1210;98641;-71
2024/04/15 06:13:36;;;;;;;4.80;0.80;;;;;;;9.80;55.12;100288.06;110536;1214;138807;-71
2024/04/15 06:16:01;;;;;;;6.20;1.30;;;;;;;9.81;55.27;100291.56;111000;1212;98252;-71
2024/04/15 06:18:26;;;;;;;3.30;1.00;;;;;;;9.81;55.41;100292.44;110800;1213;99103;-71
2024/04/15 06:20:51;;;;;;;19.30;4.00;;;;;;;9.81;55.47;100293.88;110647;1212;138323;-73
2024/04/15 06:23:18;;;;;;;3.50;1.00;;;;;;;9.83;55.62;100298.07;111330;1215;97593;-73
2024/04/15 06:25:43;;;;;;;3.30;1.40;;;;;;;9.84;55.75;100298.36;111265;1212;138603;-73
2024/04/15 06:28:08;;;;;;;6.40;1.50;;;;;;;9.81;55.68;100298.33;111375;1213;98004;-70
2024/04/15 06:30:35;;;;;;;4.50;1.20;;;;;;;9.79;55.82;100299.84;111419;1210;97971;-72
2024/04/15 06:33:00;;;;;;;7.30;1.20;;;;;;;9.74;55.88;100297.95;111237;1209;138115;-72
2024/04/15 06:35:26;;;;;;;6.50;2.20;;;;;;;9.74;56.11;100289.38;111352;1212;97342;-71
2024/04/15 06:37:51;;;;;;;6.10;1.10;;;;;;;9.78;56.25;100285.81;111357;1208;139074;-72
2024/04/15 06:40:16;;;;;;;6.10;1.40;;;;;;;9.84;56.40;100282.12;111380;1212;97876;-72
2024/04/15 06:42:42;;;;;;;4.10;1.80;;;;;;;9.89;56.44;100279.91;111339;1209;137705;-72
2024/04/15 06:45:07;;;;;;;5.80;1.00;;;;;;;9.95;56.55;100275.71;111364;1212;97684;-71
2024/04/15 06:47:32;;;;;;;3.80;1.40;;;;;;;9.99;56.63;100267.86;111360;1209;97611;-71
2024/04/15 06:49:58;;;;;;;5.80;1.30;;;;;;;10.00;56.63;100274.05;111386;1211;137956;-71
2024/04/15 06:52:24;;;;;;;7.60;1.40;;;;;;;9.97;56.64;100276.89;111362;1208;97629;-72
2024/04/15 06:54:49;;;;;;;2.30;1.00;;;;;;;9.93;56.69;100271.89;111237;1210;138487;-72
2024/04/15 06:57:15;;;;;;;10.30;2.20;;;;;;;9.89;56.80;100264.41;111424;1214;97915;-71
2024/04/15 06:59:40;;;;;;;6.80;1.40;;;;;;;9.85;56.80;100267.98;111389;1212;97669;-72
2024/04/15 07:02:07;;;;;;;5.00;1.20;;;;;;;9.81;56.92;100267.30;111341;1212;139126;-71
2024/04/15 07:04:32;;;;;;;6.30;1.40;;;;;;;9.72;56.94;100262.17;111338;1213;97604;-71
2024/04/15 07:06:58;;;;;;;4.00;1.30;;;;;;;9.66;57.03;100258.36;111269;1214;138419;-71
2024/04/15 07:09:24;;;;;;;6.70;2.00;;;;;;;9.65;57.22;100263.75;111410;1212;98131;-70
2024/04/15 07:11:49;;;;;;;5.50;1.40;;;;;;;9.67;57.26;100257.94;111373;1211;97659;-71
2024/04/15 07:14:14;;;;;;;9.50;1.70;;;;;;;9.65;57.26;100254.30;111278;1209;138103;-71
2024/04/15 07:16:39;;;;;;;4.70;1.20;;;;;;;9.63;57.34;100253.15;111334;1219;97642;-71
2024/04/15 07:19:04;;;;;;;6.70;1.70;;;;;;;9.60;57.55;100246.16;111216;1212;138423;-71
2024/04/15 07:21:29;;;;;;;6.60;1.70;;;;;;;9.61;57.58;100244.30;111334;1212;97755;-71
2024/04/15 07:23:55;;;;;;;11.50;1.60;;;;;;;9.63;57.66;100243.46;111313;1212;99948;-72
2024/04/15 07:26:20;;;;;;;5.50;2.00;;;;;;;9.61;57.68;100247.86;111236;1212;140712;-73
2024/04/15 07:28:45;;;;;;;7.50;1.80;;;;;;;9.57;57.87;100237.02;111263;1212;99090;-72
2024/04/15 07:31:10;;;;;;;10.00;1.90;;;;;;;9.57;57.82;100250.55;111108;1208;138748;-72
2024/04/15 07:33:36;;;;;;;9.90;1.70;;;;;;;9.54;57.99;100249.63;111297;1209;98988;-72
2024/04/15 07:36:03;;;;;;;8.90;1.50;;;;;;;9.51;58.15;100248.89;111363;1212;99020;-72
2024/04/15 07:38:28;;;;;;;7.60;1.80;;;;;;;9.49;58.18;100246.45;111222;1210;138472;-71
2024/04/15 07:40:56;;;;;;;4.30;1.20;;;;;;;9.49;58.27;100242.02;111405;1212;98949;-71
2024/04/15 07:43:21;;;;;;;6.60;1.20;;;;;;;9.51;58.35;100242.63;111222;1212;138808;-71
2024/04/15 07:45:46;;;;;;;5.40;1.50;;;;;;;9.54;58.42;100245.16;111277;1212;99013;-71
2024/04/15 07:48:14;;;;;;;4.40;1.50;;;;;;;9.59;58.59;100243.68;111381;1208;99395;-72
2024/04/15 07:50:41;;;;;;;8.50;2.20;;;;;;;9.66;58.67;100243.36;111263;1212;139288;-71
2024/04/15 07:53:06;;;;;;;4.00;1.50;;;;;;;9.72;58.75;100245.75;111442;1208;98968;-71
2024/04/15 07:55:31;;;;;;;9.80;2.30;;;;;;;9.81;58.87;100240.53;111160;1209;139201;-72
2024/04/15 07:57:57;;;;;;;6.80;1.60;;;;;;;9.93;58.82;100239.21;111377;1212;99123;-71
2024/04/15 08:00:22;;;;;;;7.60;1.40;;;;;;;10.03;59.00;100240.55;110705;1212;101088;-71
2024/04/15 08:02:47;;;;;;;5.00;1.70;;;;;;;10.10;59.08;100244.66;110413;1209;139184;-72
2024/04/15 08:05:13;;;;;;;3.30;1.00;;;;;;;10.20;59.04;100243.31;111136;1212;100746;-71
2024/04/15 08:07:38;;;;;;;11.60;1.70;;;;;;;10.27;58.98;100247.83;111297;1214;138236;-72
2024/04/15 08:10:03;;;;;;;2.70;1.20;;;;;;;10.29;59.15;100240.73;111249;1212;98949;-72
2024/04/15 08:12:29;;;;;;;4.80;1.40;;;;;;;10.34;59.02;100234.61;111069;1209;99212;-72
2024/04/15 08:14:54;;;;;;;5.30;1.40;;;;;;;10.36;59.02;100228.98;111233;1215;139442;-71
2024/04/15 08:17:19;;;;;;;8.60;2.00;;;;;;;10.40;58.93;100236.98;111224;1212;98725;-71
2024/04/15 08:19:45;;;;;;;8.70;1.50;;;;;;;10.37;58.90;100227.34;111234;1212;137786;-72
2024/04/15 08:22:10;;;;;;;2.00;1.00;;;;;;;10.37;58.96;100223.21;111279;1209;98960;-73
2024/04/15 08:24:35;;;;;;;7.50;1.50;;;;;;;10.40;58.98;100216.61;111285;1210;100198;-72
2024/04/15 08:27:01;;;;;;;5.40;1.60;;;;;;;10.38;59.03;100217.95;111193;1213;138762;-71
2024/04/15 08:29:26;;;;;;;5.40;1.20;;;;;;;10.33;58.79;100217.85;111230;1212;98957;-72
2024/04/15 08:31:52;;;;;;;8.00;1.90;;;;;;;10.28;58.90;100216.69;111177;1212;137877;-73
2024/04/15 08:34:17;;;;;;;4.40;1.30;;;;;;;10.27;58.99;100205.33;111231;1212;97861;-73
2024/04/15 08:36:42;;;;;;;8.50;1.60;;;;;;;10.29;58.95;100207.18;111129;1221;138173;-72
2024/04/15 08:39:08;;;;;;;3.30;1.30;;;;;;;10.33;59.05;100209.50;111277;1212;104942;-71
2024/04/15 08:41:48;;;;;;;3.50;1.60;;;;;;;10.44;58.98;100212.13;111273;1212;99025;-72
2024/04/15 08:44:18;;;;;;;7.10;1.70;;;;;;;10.52;58.87;100205.13;111089;1212;138868;-71
2024/04/15 08:46:44;;;;;;;8.90;2.50;;;;;;;10.59;58.85;100203.52;111247;1212;112488;-72
2024/04/15 08:49:10;;;;;;;7.00;1.40;;;;;;;10.68;58.89;100199.09;111359;1209;139101;-71
2024/04/15 08:51:35;;;;;;;4.80;1.60;;;;;;;10.77;58.89;100194.02;111293;1212;99020;-71
2024/04/15 08:54:01;;;;;;;7.50;1.80;;;;;;;10.83;58.99;100192.63;111309;1212;98961;-72
2024/04/15 08:56:27;;;;;;;7.20;1.60;;;;;;;10.91;58.85;100189.70;111028;1212;138985;-70
2024/04/15 08:58:58;;;;;;;8.00;2.30;;;;;;;10.98;58.86;100182.54;111274;1212;98526;-70
2024/04/15 09:01:23;;;;;;;12.70;2.00;;;;;;;11.02;58.83;100184.44;111103;1212;139851;-71
2024/04/15 09:03:49;;;;;;;15.50;3.40;;;;;;;11.04;58.80;100178.83;111227;1212;99014;-70
2024/04/15 09:06:15;;;;;;;8.70;2.00;;;;;;;11.02;58.65;100182.31;111333;1209;99070;-71
2024/04/15 09:08:43;;;;;;;3.30;1.50;;;;;;;10.96;58.54;100177.83;111223;1212;137969;-71
2024/04/15 09:11:08;;;;;;;7.10;1.90;;;;;;;10.95;58.66;100178.07;111305;1212;99063;-71
2024/04/15 09:13:34;;;;;;;9.90;1.80;;;;;;;11.01;58.68;100171.66;111055;1215;137909;-70
2024/04/15 09:15:59;;;;;;;4.40;2.30;;;;;;;11.05;58.55;100167.69;111342;1212;99045;-71
2024/04/15 09:18:24;;;;;;;3.40;1.20;;;;;;;11.05;58.51;100165.52;111273;1212;98949;-70
2024/04/15 09:20:49;;;;;;;7.90;1.70;;;;;;;11.05;58.36;100167.33;111196;1212;138054;-70
2024/04/15 09:23:15;;;;;;;7.80;1.20;;;;;;;11.10;58.39;100166.73;111320;1210;99317;-70
2024/04/15 09:25:40;;;;;;;4.40;1.50;;;;;;;11.16;58.30;100162.64;111161;1209;137899;-71
2024/04/15 09:28:05;;;;;;;7.50;1.80;;;;;;;11.21;58.23;100165.24;111424;1209;98966;-72
2024/04/15 09:30:34;;;;;;;7.90;1.30;;;;;;;11.25;58.21;100158.36;111228;1212;98592;-73
2024/04/15 09:33:00;;;;;;;4.40;1.40;;;;;;;11.31;58.16;100167.16;111198;1212;137868;-73
2024/04/15 09:35:27;;;;;;;6.40;2.20;;;;;;;11.31;57.95;100167.18;111296;1209;99200;-72
2024/04/15 09:37:53;;;;;;;8.10;2.00;;;;;;;11.27;57.99;100161.30;111258;1212;139549;-73
2024/04/15 09:40:25;;;;;;;6.40;1.60;;;;;;;11.24;57.94;100161.33;111280;1221;98976;-72
2024/04/15 09:42:56;;;;;;;6.70;1.60;;;;;;;11.21;57.88;100153.58;111351;1209;138849;-70
2024/04/15 09:45:21;;;;;;;9.50;1.70;;;;;;;11.28;57.93;100143.58;111342;1212;112676;-71
2024/04/15 09:47:50;;;;;;;8.60;1.70;;;;;;;11.37;58.01;100145.73;111285;1212;99073;-70
2024/04/15 09:50:17;;;;;;;6.30;1.60;;;;;;;11.47;57.85;100145.74;111182;1209;138056;-70
2024/04/15 09:52:45;;;;;;;7.70;1.40;;;;;;;11.50;57.79;100138.09;111253;1209;99134;-71
2024/04/15 09:55:20;;;;;;;9.20;1.80;;;;;;;11.48;57.63;100145.31;111229;1212;138300;-71
2024/04/15 09:57:47;;;;;;;3.00;1.10;;;;;;;11.43;57.65;100142.95;111359;1209;114699;-71
2024/04/15 10:00:14;;;;;;;7.70;2.70;;;;;;;11.37;57.51;100137.14;111311;1212;98242;-71
2024/04/15 10:02:51;;;;;;;9.20;2.30;;;;;;;11.37;57.49;100135.38;111175;1212;139208;-71
2024/04/15 10:05:24;;;;;;;9.30;2.00;;;;;;;11.39;57.42;100130.98;111308;1212;98939;-71
2024/04/15 10:07:52;;;;;;;3.60;1.40;;;;;;;11.48;57.42;100128.69;111247;1212;138212;-71
2024/04/15 10:10:21;;;;;;;5.90;1.50;;;;;;;11.63;57.29;100124.25;111278;1209;99039;-71
2024/04/15 10:12:51;;;;;;;4.00;1.50;;;;;;;11.74;57.22;100114.51;111328;1210;138435;-71
2024/04/15 10:15:17;;;;;;;7.10;1.50;;;;;;;11.82;57.13;100106.80;111190;1208;108679;-71
2024/04/15 10:17:54;;;;;;;9.60;2.00;;;;;;;11.84;57.09;100103.25;111375;1212;99004;-70
2024/04/15 10:20:19;;;;;;;8.00;1.80;;;;;;;11.87;56.89;100101.61;111199;1212;138881;-71
2024/04/15 10:22:44;;;;;;;5.20;1.70;;;;;;;11.86;56.76;100097.58;111353;1209;99396;-71
2024/04/15 10:25:10;;;;;;;10.60;1.60;;;;;;;11.81;56.66;100096.05;111229;1214;138676;-71
2024/04/15 10:27:35;;;;;;;5.90;1.50;;;;;;;11.76;56.43;100091.85;111359;1209;99084;-70
2024/04/15 10:30:11;;;;;;;7.50;1.40;;;;;;;11.72;56.28;100083.48;111401;1209;98958;-70
2024/04/15 10:32:42;;;;;;;11.60;1.70;;;;;;;11.69;56.13;100074.38;111260;1212;138189;-72
2024/04/15 10:35:20;;;;;;;3.60;1.10;;;;;;;11.73;56.16;100070.57;111367;1213;107521;-73
2024/04/15 10:37:50;;;;;;;5.90;1.50;;;;;;;11.85;56.08;100077.23;111218;1209;139567;-71
2024/04/15 10:40:15;;;;;;;5.80;1.40;;;;;;;11.97;55.97;100070.96;111322;1212;99799;-74
2024/04/15 10:42:42;;;;;;;6.70;1.70;;;;;;;12.09;55.93;100064.90;111295;1209;137906;-69
2024/04/15 10:45:15;;;;;;;9.90;1.70;;;;;;;12.23;55.89;100061.73;111455;1210;99507;-71
2024/04/15 10:47:41;;;;;;;10.70;1.90;;;;;;;12.34;55.69;100058.75;111313;1212;99000;-72
2024/04/15 10:50:08;;;;;;;6.70;1.30;;;;;;;12.37;55.58;100056.07;111305;1209;138420;-72
2024/04/15 10:52:33;;;;;;;3.90;1.60;;;;;;;12.39;55.60;100051.83;111291;1209;100197;-70
2024/04/15 10:54:59;;;;;;;5.60;1.70;;;;;;;12.41;55.55;100042.20;111198;1210;138116;-69
2024/04/15 10:57:24;;;;;;;16.10;1.90;;;;;;;12.47;55.35;100039.86;111310;1212;97802;-70
2024/04/15 10:59:49;;;;;;;16.20;2.00;;;;;;;12.55;55.40;100034.70;111423;1212;98975;-71
2024/04/15 11:02:15;;;;;;;11.70;1.80;;;;;;;12.62;55.31;100026.90;111216;1209;138419;-70
2024/04/15 11:04:40;;;;;;;4.40;1.50;;;;;;;12.72;55.22;100027.56;111351;1212;99000;-70
2024/04/15 11:07:05;;;;;;;11.20;1.90;;;;;;;12.78;55.07;100028.97;111320;1212;138535;-70